Weather at Silampari Airport

Public forecast

Using degrees Celsius for public forecast. Weather courtesy of forecast.io.

Closest aviation weather report (METAR) to Silampari Airport

Closest report is Sultan Mahmud Badaruddin II Airport, 109.5 nm (202.7 km) ENE.

2024/07/14 16:30 (retrieved 10 minutes ago)

WIPP 141630Z 11005KT 9999 SCT012 26/23 Q1009 NOSIG

Aviation forecast (TAF) for Silampari Airport

Forecast is more than 6 hours old.

2024/07/14 06:00 (retrieved 11 hours ago)

TAF WIPB 140500Z 1406/1418 10007KT 9000 SCT010 TEMPO 1409/1413 BKN010